KMLP - Mullan Pass
Updated: Sat, 19-Aug-2017 6:53am PDT
Clear
Clear
 Wind from SSW
Wind: SSW at 7 mph , 11 km/h
Temperature : 48°F , 9°C
Wind Chill : 45°F , 7°C
Dew Point : 37°F , 3°C
Humidity : 66%
Barometer : 30.13 inHg , 1020.3 hPa
Clouds : Clear
Visibility : 10 miles , 16 km
2017/08/19 13:53 KMLP 191353Z AUTO 21006KT 10SM CLR 09/03 A3013 RMK AO2 SLP115 T00940028 TSNO

 

KCOE - Coeur d Alene
Updated: Sat, 19-Aug-2017 6:56am PDT
Clear
Clear
 Wind from SSW
Wind: SSW at 6 mph , 9 km/h
Temperature : 59°F , 15°C
Dew Point : 46°F , 8°C
Humidity : 63%
Barometer : 30.04 inHg , 1017.3 hPa
Clouds : Clear
Visibility : 10 miles , 16 km
2017/08/19 13:56 KCOE 191356Z AUTO 20005KT 10SM CLR 15/08 A3004 RMK AO2 SLP172 T01500078

 

KLWS - Lewiston
Updated: Sat, 19-Aug-2017 6:56am PDT
Clear
Clear
 Wind from S
Wind: S at 5 mph , 7 km/h
Temperature : 66°F , 19°C
Dew Point : 48°F , 9°C
Humidity : 52%
Barometer : 30.04 inHg , 1017.3 hPa
Clouds : Clear
Visibility : 10 miles , 16 km
2017/08/19 13:56 KLWS 191356Z 19004KT 10SM CLR 19/09 A3004 RMK AO2 SLP163 T01890089

 

KGEG - Spokane Intl
Updated: Sat, 19-Aug-2017 6:53am PDT
Mostly cloudy
Mostly cloudy
 Wind from SSE
Wind: SSE at 7 mph , 11 km/h
Temperature : 54°F , 12°C
Dew Point : 45°F , 7°C
Humidity : 72%
Barometer : 30.03 inHg , 1016.9 hPa
Clouds : Mostly cloudy
Visibility : 10 miles , 16 km
2017/08/19 13:53 KGEG 191353Z 16006KT 10SM FEW100 BKN200 12/07 A3003 RMK AO2 SLP155 FU FEW100 T01220072